Fulda, MN

11:47 AM CDT on September 20, 2019 (GMT -0500)
Seward Township | | Change Station
Active Advisory: Flood Warning

Elev 1434 ft 43.80 °N, 95.66 °W | Updated 22 seconds ago

Clear
Clear
81.1 °F
Feels Like 86 °F
N
8.3
Wind Variable Wind from SSW
Gusts 10.3 mph

Today
High -- | Low -- °F
--% Chance of Precip.
Yesterday
High -- | Low -- °F
Precip. -- in
Pressure 29.99 in
Visibility 10.0 miles
Clouds Clear
Heat Index 86 °F
Dew Point 73 °F
Humidity 77%
Rainfall 0.00 in
Snow Depth Not available.
7:07 AM 7:23 PM
Waning Gibbous, 65% visible
METAR KOTG 201556Z AUTO 17009KT 10SM CLR 25/22 A3001 RMK AO2 SLP156 T02500217
Pressure 29.99 in
Visibility 10.0 miles
Clouds Clear
Heat Index 86 °F
Dew Point 73 °F
Humidity 77%
Rainfall 0.00 in
Snow Depth Not available.
7:07 AM 7:23 PM
Waning Gibbous, 65% visible
METAR KOTG 201556Z AUTO 17009KT 10SM CLR 25/22 A3001 RMK AO2 SLP156 T02500217

Get Your Daily Forecast Email!

Thanks for signing up!

Be on the lookout for a verification email in your inbox.

You'll start receiving severe weather alerts in your inbox..

×

10-Day Weather Forecast

Almanac

Astronomy

Sep. 20, 2019 Rise Set
Actual Time
Civil Twilight
Nautical Twilight
Astronomical Twilight
Moon
Length of Visible Light
Length of Day
Tomorrow will be .
, % of the Moon is Illuminated

Today's Extremes

State Highs State Lows

Community

WunderPhotos

Category 6

Welcome to Category 6. This is the collective home for Weather Underground's featured writeups by Dr. Jeff Masters (right), Bob Henson (left), Chris Burt, and other regular contributors.

Nearby

Air Quality

  Air Quality AQ Index Pollutant
Not available.

Snow Depth

Station Depth Elevation

Earthquake Activity

City Distance Mag. Time & Date
Minimum magnitude displayed is 2.5.

Coastal Water Temperatures

Place Temperature

Stations

Nearby Weather Stations

Station Location Temp. Windchill Dew Point Humidity Wind Precip. Elev Updated Type
                   

Watches & Warnings

Flood Warning
Issued: 10:31 AM CDT Sep. 20, 2019 – National Weather Service

The Flood Warning continues for
the West Fork Des Moines River near Avoca.
* Until further notice.
* At 09 am Friday the stage was 1426.05 feet.
* Flood stage is 1425.00 feet.
* At stages near 1426 feet... significant amounts of crop and pasture
land are flooded.


Lat... Lon 4406 9571 4411 9564 4389 9537 4382 9533
          4386 9546 4396 9557